sensor_id;sensor_type;location;lat;lon;timestamp;temperature;humidity
54898;DHT22;40800;52.704;6.398;2022-11-13T00:00:40;6.80;99.90
54898;DHT22;40800;52.704;6.398;2022-11-13T00:03:05;6.80;99.90
54898;DHT22;40800;52.704;6.398;2022-11-13T00:05:31;6.90;99.90
54898;DHT22;40800;52.704;6.398;2022-11-13T00:07:57;6.90;99.90
54898;DHT22;40800;52.704;6.398;2022-11-13T00:10:22;6.80;99.90
54898;DHT22;40800;52.704;6.398;2022-11-13T00:12:48;6.60;99.90
54898;DHT22;40800;52.704;6.398;2022-11-13T00:15:13;6.40;99.90
54898;DHT22;40800;52.704;6.398;2022-11-13T00:17:39;6.50;99.90
54898;DHT22;40800;52.704;6.398;2022-11-13T00:20:05;6.50;99.90
54898;DHT22;40800;52.704;6.398;2022-11-13T00:22:31;6.50;99.90
54898;DHT22;40800;52.704;6.398;2022-11-13T00:24:56;6.50;99.90
54898;DHT22;40800;52.704;6.398;2022-11-13T00:27:22;6.60;99.90
54898;DHT22;40800;52.704;6.398;2022-11-13T00:29:47;6.70;99.90
54898;DHT22;40800;52.704;6.398;2022-11-13T00:32:13;6.90;99.90
54898;DHT22;40800;52.704;6.398;2022-11-13T00:34:38;6.90;99.90
54898;DHT22;40800;52.704;6.398;2022-11-13T00:37:04;7.00;99.90
54898;DHT22;40800;52.704;6.398;2022-11-13T00:39:29;7.00;99.90
54898;DHT22;40800;52.704;6.398;2022-11-13T00:41:55;6.90;99.90
54898;DHT22;40800;52.704;6.398;2022-11-13T00:44:21;6.90;99.90
54898;DHT22;40800;52.704;6.398;2022-11-13T00:46:46;6.80;99.90
54898;DHT22;40800;52.704;6.398;2022-11-13T00:49:12;6.90;99.90
54898;DHT22;40800;52.704;6.398;2022-11-13T00:51:37;6.90;99.90
54898;DHT22;40800;52.704;6.398;2022-11-13T00:54:03;7.00;99.90
54898;DHT22;40800;52.704;6.398;2022-11-13T00:56:29;7.10;99.90
54898;DHT22;40800;52.704;6.398;2022-11-13T00:58:54;6.90;99.90
54898;DHT22;40800;52.704;6.398;2022-11-13T01:01:20;6.90;99.90
54898;DHT22;40800;52.704;6.398;2022-11-13T01:03:46;7.00;99.90
54898;DHT22;40800;52.704;6.398;2022-11-13T01:06:23;6.80;99.90
54898;DHT22;40800;52.704;6.398;2022-11-13T01:08:52;6.70;99.90
54898;DHT22;40800;52.704;6.398;2022-11-13T01:11:21;6.50;99.90
54898;DHT22;40800;52.704;6.398;2022-11-13T01:13:48;6.50;99.90
54898;DHT22;40800;52.704;6.398;2022-11-13T01:16:15;6.60;99.90
54898;DHT22;40800;52.704;6.398;2022-11-13T01:18:41;6.50;99.90
54898;DHT22;40800;52.704;6.398;2022-11-13T01:21:10;6.50;99.90
54898;DHT22;40800;52.704;6.398;2022-11-13T01:23:36;6.40;99.90
54898;DHT22;40800;52.704;6.398;2022-11-13T01:26:08;6.60;99.90
54898;DHT22;40800;52.704;6.398;2022-11-13T01:28:34;6.60;99.90
54898;DHT22;40800;52.704;6.398;2022-11-13T01:31:02;6.70;99.90
54898;DHT22;40800;52.704;6.398;2022-11-13T01:33:28;6.70;99.90
54898;DHT22;40800;52.704;6.398;2022-11-13T01:36:02;6.60;99.90
54898;DHT22;40800;52.704;6.398;2022-11-13T01:38:28;7.40;99.90
54898;DHT22;40800;52.704;6.398;2022-11-13T01:40:54;6.90;99.90
54898;DHT22;40800;52.704;6.398;2022-11-13T01:43:33;6.90;99.90
54898;DHT22;40800;52.704;6.398;2022-11-13T01:48:38;6.80;99.90
54898;DHT22;40800;52.704;6.398;2022-11-13T01:51:13;6.90;99.90
54898;DHT22;40800;52.704;6.398;2022-11-13T01:53:42;7.00;99.90
54898;DHT22;40800;52.704;6.398;2022-11-13T01:56:09;6.80;99.90
54898;DHT22;40800;52.704;6.398;2022-11-13T01:58:34;6.90;99.90
54898;DHT22;40800;52.704;6.398;2022-11-13T02:01:01;6.80;99.90
54898;DHT22;40800;52.704;6.398;2022-11-13T02:03:27;6.80;99.90
54898;DHT22;40800;52.704;6.398;2022-11-13T02:05:53;6.80;99.90
54898;DHT22;40800;52.704;6.398;2022-11-13T02:08:19;6.70;99.90
54898;DHT22;40800;52.704;6.398;2022-11-13T02:10:45;6.40;99.90
54898;DHT22;40800;52.704;6.398;2022-11-13T02:13:12;6.40;99.90
54898;DHT22;40800;52.704;6.398;2022-11-13T02:15:39;6.40;99.90
54898;DHT22;40800;52.704;6.398;2022-11-13T02:18:05;6.60;99.90
54898;DHT22;40800;52.704;6.398;2022-11-13T02:26:37;6.70;99.90
54898;DHT22;40800;52.704;6.398;2022-11-13T02:29:02;6.90;99.90
54898;DHT22;40800;52.704;6.398;2022-11-13T02:31:28;7.00;99.90
54898;DHT22;40800;52.704;6.398;2022-11-13T02:33:54;6.90;99.90
54898;DHT22;40800;52.704;6.398;2022-11-13T02:36:21;7.10;99.90
54898;DHT22;40800;52.704;6.398;2022-11-13T02:38:49;7.10;99.90
54898;DHT22;40800;52.704;6.398;2022-11-13T02:41:16;6.90;99.90
54898;DHT22;40800;52.704;6.398;2022-11-13T02:43:41;7.00;99.90
54898;DHT22;40800;52.704;6.398;2022-11-13T02:46:07;7.00;99.90
54898;DHT22;40800;52.704;6.398;2022-11-13T02:48:33;6.80;99.90
54898;DHT22;40800;52.704;6.398;2022-11-13T02:50:58;6.90;99.90
54898;DHT22;40800;52.704;6.398;2022-11-13T02:53:24;6.80;99.90
54898;DHT22;40800;52.704;6.398;2022-11-13T02:55:50;7.00;99.90
54898;DHT22;40800;52.704;6.398;2022-11-13T02:58:15;6.90;99.90
54898;DHT22;40800;52.704;6.398;2022-11-13T03:00:41;7.00;99.90
54898;DHT22;40800;52.704;6.398;2022-11-13T03:03:07;6.80;99.90
54898;DHT22;40800;52.704;6.398;2022-11-13T03:05:32;6.90;99.90
54898;DHT22;40800;52.704;6.398;2022-11-13T03:07:58;6.90;99.90
54898;DHT22;40800;52.704;6.398;2022-11-13T03:10:23;7.00;99.90
54898;DHT22;40800;52.704;6.398;2022-11-13T03:12:49;6.90;99.90
54898;DHT22;40800;52.704;6.398;2022-11-13T03:15:14;7.00;99.90
54898;DHT22;40800;52.704;6.398;2022-11-13T03:17:40;7.00;99.90
54898;DHT22;40800;52.704;6.398;2022-11-13T03:20:06;6.90;99.90
54898;DHT22;40800;52.704;6.398;2022-11-13T03:22:32;7.10;99.90
54898;DHT22;40800;52.704;6.398;2022-11-13T03:24:58;6.90;99.90
54898;DHT22;40800;52.704;6.398;2022-11-13T03:27:23;6.90;99.90
54898;DHT22;40800;52.704;6.398;2022-11-13T03:29:49;6.80;99.90
54898;DHT22;40800;52.704;6.398;2022-11-13T03:32:14;6.90;99.90
54898;DHT22;40800;52.704;6.398;2022-11-13T03:34:40;6.90;99.90
54898;DHT22;40800;52.704;6.398;2022-11-13T03:37:06;7.00;99.90
54898;DHT22;40800;52.704;6.398;2022-11-13T03:39:32;7.10;99.90
54898;DHT22;40800;52.704;6.398;2022-11-13T03:41:57;7.00;99.90
54898;DHT22;40800;52.704;6.398;2022-11-13T03:44:23;7.00;99.90
54898;DHT22;40800;52.704;6.398;2022-11-13T03:46:48;6.80;99.90
54898;DHT22;40800;52.704;6.398;2022-11-13T03:49:14;7.00;99.90
54898;DHT22;40800;52.704;6.398;2022-11-13T03:51:39;7.00;99.90
54898;DHT22;40800;52.704;6.398;2022-11-13T03:54:05;6.90;99.90
54898;DHT22;40800;52.704;6.398;2022-11-13T03:56:31;6.80;99.90
54898;DHT22;40800;52.704;6.398;2022-11-13T03:58:56;6.80;99.90
54898;DHT22;40800;52.704;6.398;2022-11-13T04:01:22;6.90;99.90
54898;DHT22;40800;52.704;6.398;2022-11-13T04:03:48;7.00;99.90
54898;DHT22;40800;52.704;6.398;2022-11-13T04:06:14;6.80;99.90
54898;DHT22;40800;52.704;6.398;2022-11-13T04:08:39;6.80;99.90
54898;DHT22;40800;52.704;6.398;2022-11-13T04:11:06;7.00;99.90
54898;DHT22;40800;52.704;6.398;2022-11-13T04:13:32;7.00;99.90
54898;DHT22;40800;52.704;6.398;2022-11-13T04:15:57;7.00;99.90
54898;DHT22;40800;52.704;6.398;2022-11-13T04:18:23;6.80;99.90
54898;DHT22;40800;52.704;6.398;2022-11-13T04:20:48;6.90;99.90
54898;DHT22;40800;52.704;6.398;2022-11-13T04:23:14;7.00;99.90
54898;DHT22;40800;52.704;6.398;2022-11-13T04:25:42;6.80;99.90
54898;DHT22;40800;52.704;6.398;2022-11-13T04:28:09;6.80;99.90
54898;DHT22;40800;52.704;6.398;2022-11-13T04:30:35;6.80;99.90
54898;DHT22;40800;52.704;6.398;2022-11-13T04:33:00;6.70;99.90
54898;DHT22;40800;52.704;6.398;2022-11-13T04:35:26;6.90;99.90
54898;DHT22;40800;52.704;6.398;2022-11-13T04:37:52;6.70;99.90
54898;DHT22;40800;52.704;6.398;2022-11-13T04:40:17;6.70;99.90
54898;DHT22;40800;52.704;6.398;2022-11-13T04:42:43;6.70;99.90
54898;DHT22;40800;52.704;6.398;2022-11-13T04:45:20;6.90;99.90
54898;DHT22;40800;52.704;6.398;2022-11-13T04:47:45;6.70;99.90
54898;DHT22;40800;52.704;6.398;2022-11-13T04:50:12;6.70;99.90
54898;DHT22;40800;52.704;6.398;2022-11-13T04:52:38;6.60;99.90
54898;DHT22;40800;52.704;6.398;2022-11-13T04:55:04;6.70;99.90
54898;DHT22;40800;52.704;6.398;2022-11-13T04:57:30;6.50;99.90
54898;DHT22;40800;52.704;6.398;2022-11-13T04:59:56;6.70;99.90
54898;DHT22;40800;52.704;6.398;2022-11-13T05:02:22;6.50;99.90
54898;DHT22;40800;52.704;6.398;2022-11-13T05:04:47;6.60;99.90
54898;DHT22;40800;52.704;6.398;2022-11-13T05:07:13;6.50;99.90
54898;DHT22;40800;52.704;6.398;2022-11-13T05:09:39;6.70;99.90
54898;DHT22;40800;52.704;6.398;2022-11-13T05:12:04;6.50;99.90
54898;DHT22;40800;52.704;6.398;2022-11-13T05:14:35;6.40;99.90
54898;DHT22;40800;52.704;6.398;2022-11-13T05:17:01;6.40;99.90
54898;DHT22;40800;52.704;6.398;2022-11-13T05:19:26;6.60;99.90
54898;DHT22;40800;52.704;6.398;2022-11-13T05:21:52;6.60;99.90
54898;DHT22;40800;52.704;6.398;2022-11-13T05:24:17;6.60;99.90
54898;DHT22;40800;52.704;6.398;2022-11-13T05:26:43;6.40;99.90
54898;DHT22;40800;52.704;6.398;2022-11-13T05:29:08;6.60;99.90
54898;DHT22;40800;52.704;6.398;2022-11-13T05:31:34;6.50;99.90
54898;DHT22;40800;52.704;6.398;2022-11-13T05:34:02;6.50;99.90
54898;DHT22;40800;52.704;6.398;2022-11-13T05:36:28;6.60;99.90
54898;DHT22;40800;52.704;6.398;2022-11-13T05:38:54;6.60;99.90
54898;DHT22;40800;52.704;6.398;2022-11-13T05:41:20;6.60;99.90
54898;DHT22;40800;52.704;6.398;2022-11-13T05:43:47;6.40;99.90
54898;DHT22;40800;52.704;6.398;2022-11-13T05:46:17;6.60;99.90
54898;DHT22;40800;52.704;6.398;2022-11-13T05:48:43;6.40;99.90
54898;DHT22;40800;52.704;6.398;2022-11-13T05:51:11;6.40;99.90
54898;DHT22;40800;52.704;6.398;2022-11-13T05:53:38;6.60;99.90
54898;DHT22;40800;52.704;6.398;2022-11-13T05:56:10;6.60;99.90
54898;DHT22;40800;52.704;6.398;2022-11-13T05:58:36;6.50;99.90
54898;DHT22;40800;52.704;6.398;2022-11-13T06:01:17;6.50;99.90
54898;DHT22;40800;52.704;6.398;2022-11-13T06:03:44;6.50;99.90
54898;DHT22;40800;52.704;6.398;2022-11-13T06:06:12;6.30;99.90
54898;DHT22;40800;52.704;6.398;2022-11-13T06:08:38;6.20;99.90
54898;DHT22;40800;52.704;6.398;2022-11-13T06:11:06;6.40;99.90
54898;DHT22;40800;52.704;6.398;2022-11-13T06:13:32;6.20;99.90
54898;DHT22;40800;52.704;6.398;2022-11-13T06:16:06;6.50;99.90
54898;DHT22;40800;52.704;6.398;2022-11-13T06:18:32;6.20;99.90
54898;DHT22;40800;52.704;6.398;2022-11-13T06:21:02;6.20;99.90
54898;DHT22;40800;52.704;6.398;2022-11-13T06:23:28;6.20;99.90
54898;DHT22;40800;52.704;6.398;2022-11-13T06:26:08;6.20;99.90
54898;DHT22;40800;52.704;6.398;2022-11-13T06:28:34;6.20;99.90
54898;DHT22;40800;52.704;6.398;2022-11-13T06:31:12;6.00;99.90
54898;DHT22;40800;52.704;6.398;2022-11-13T06:33:39;6.00;99.90
54898;DHT22;40800;52.704;6.398;2022-11-13T06:36:12;5.80;99.90
54898;DHT22;40800;52.704;6.398;2022-11-13T06:38:39;5.90;99.90
54898;DHT22;40800;52.704;6.398;2022-11-13T06:41:06;5.90;99.90
54898;DHT22;40800;52.704;6.398;2022-11-13T06:43:32;5.90;99.90
54898;DHT22;40800;52.704;6.398;2022-11-13T06:45:58;5.90;99.90
54898;DHT22;40800;52.704;6.398;2022-11-13T06:48:27;5.80;99.90
54898;DHT22;40800;52.704;6.398;2022-11-13T06:50:53;5.90;99.90
54898;DHT22;40800;52.704;6.398;2022-11-13T06:53:18;5.60;99.90
54898;DHT22;40800;52.704;6.398;2022-11-13T06:55:46;5.80;99.90
54898;DHT22;40800;52.704;6.398;2022-11-13T06:58:12;5.60;99.90
54898;DHT22;40800;52.704;6.398;2022-11-13T07:00:39;5.70;99.90
54898;DHT22;40800;52.704;6.398;2022-11-13T07:03:05;5.50;99.90
54898;DHT22;40800;52.704;6.398;2022-11-13T07:05:31;5.60;99.90
54898;DHT22;40800;52.704;6.398;2022-11-13T07:07:56;5.50;99.90
54898;DHT22;40800;52.704;6.398;2022-11-13T07:10:22;5.70;99.90
54898;DHT22;40800;52.704;6.398;2022-11-13T07:12:47;5.80;99.90
54898;DHT22;40800;52.704;6.398;2022-11-13T07:15:13;5.70;99.90
54898;DHT22;40800;52.704;6.398;2022-11-13T07:17:40;5.80;99.90
54898;DHT22;40800;52.704;6.398;2022-11-13T07:20:06;5.90;99.90
54898;DHT22;40800;52.704;6.398;2022-11-13T07:22:32;5.90;99.90
54898;DHT22;40800;52.704;6.398;2022-11-13T07:24:58;5.90;99.90
54898;DHT22;40800;52.704;6.398;2022-11-13T07:27:23;6.10;99.90
54898;DHT22;40800;52.704;6.398;2022-11-13T07:29:49;5.90;99.90
54898;DHT22;40800;52.704;6.398;2022-11-13T07:32:15;6.00;99.90
54898;DHT22;40800;52.704;6.398;2022-11-13T07:34:40;6.00;99.90
54898;DHT22;40800;52.704;6.398;2022-11-13T07:37:06;6.30;99.90
54898;DHT22;40800;52.704;6.398;2022-11-13T07:39:32;6.30;99.90
54898;DHT22;40800;52.704;6.398;2022-11-13T07:41:57;6.40;99.90
54898;DHT22;40800;52.704;6.398;2022-11-13T07:44:23;6.50;99.90
54898;DHT22;40800;52.704;6.398;2022-11-13T07:46:48;6.40;99.90
54898;DHT22;40800;52.704;6.398;2022-11-13T07:49:14;6.50;99.90
54898;DHT22;40800;52.704;6.398;2022-11-13T07:51:40;6.80;99.90
54898;DHT22;40800;52.704;6.398;2022-11-13T07:54:05;6.60;99.90
54898;DHT22;40800;52.704;6.398;2022-11-13T07:56:31;6.80;99.90
54898;DHT22;40800;52.704;6.398;2022-11-13T07:58:57;6.90;99.90
54898;DHT22;40800;52.704;6.398;2022-11-13T08:01:22;6.70;99.90
54898;DHT22;40800;52.704;6.398;2022-11-13T08:03:48;6.80;99.90
54898;DHT22;40800;52.704;6.398;2022-11-13T08:06:13;7.10;99.90
54898;DHT22;40800;52.704;6.398;2022-11-13T08:08:39;7.30;99.90
54898;DHT22;40800;52.704;6.398;2022-11-13T08:11:06;7.20;99.90
54898;DHT22;40800;52.704;6.398;2022-11-13T08:13:33;7.50;99.90
54898;DHT22;40800;52.704;6.398;2022-11-13T08:16:01;7.50;99.90
54898;DHT22;40800;52.704;6.398;2022-11-13T08:18:30;7.60;99.90
54898;DHT22;40800;52.704;6.398;2022-11-13T08:20:59;7.80;99.90
54898;DHT22;40800;52.704;6.398;2022-11-13T08:23:24;7.70;99.90
54898;DHT22;40800;52.704;6.398;2022-11-13T08:25:50;8.00;99.90
54898;DHT22;40800;52.704;6.398;2022-11-13T08:28:16;8.00;99.90
54898;DHT22;40800;52.704;6.398;2022-11-13T08:30:44;8.00;99.90
54898;DHT22;40800;52.704;6.398;2022-11-13T08:33:10;8.00;99.90
54898;DHT22;40800;52.704;6.398;2022-11-13T08:35:36;8.10;99.90
54898;DHT22;40800;52.704;6.398;2022-11-13T08:38:07;8.20;99.90
54898;DHT22;40800;52.704;6.398;2022-11-13T08:40:34;8.40;99.90
54898;DHT22;40800;52.704;6.398;2022-11-13T08:43:02;8.40;99.90
54898;DHT22;40800;52.704;6.398;2022-11-13T08:45:29;8.50;99.90
54898;DHT22;40800;52.704;6.398;2022-11-13T08:48:01;8.50;99.90
54898;DHT22;40800;52.704;6.398;2022-11-13T08:50:28;8.70;99.90
54898;DHT22;40800;52.704;6.398;2022-11-13T08:52:55;8.70;99.90
54898;DHT22;40800;52.704;6.398;2022-11-13T08:55:21;8.60;99.90
54898;DHT22;40800;52.704;6.398;2022-11-13T08:57:46;8.70;99.90
54898;DHT22;40800;52.704;6.398;2022-11-13T09:00:12;9.00;99.90
54898;DHT22;40800;52.704;6.398;2022-11-13T09:02:38;8.80;99.90
54898;DHT22;40800;52.704;6.398;2022-11-13T09:05:04;9.00;99.90
54898;DHT22;40800;52.704;6.398;2022-11-13T09:07:30;9.00;99.90
54898;DHT22;40800;52.704;6.398;2022-11-13T09:09:55;9.00;99.90
54898;DHT22;40800;52.704;6.398;2022-11-13T09:12:21;9.30;99.90
54898;DHT22;40800;52.704;6.398;2022-11-13T09:14:47;9.40;99.90
54898;DHT22;40800;52.704;6.398;2022-11-13T09:17:12;9.50;99.90
54898;DHT22;40800;52.704;6.398;2022-11-13T09:19:38;9.50;99.90
54898;DHT22;40800;52.704;6.398;2022-11-13T09:22:03;9.60;99.90
54898;DHT22;40800;52.704;6.398;2022-11-13T09:24:29;9.70;99.90
54898;DHT22;40800;52.704;6.398;2022-11-13T09:26:54;10.00;99.90
54898;DHT22;40800;52.704;6.398;2022-11-13T09:29:20;10.10;99.90
54898;DHT22;40800;52.704;6.398;2022-11-13T09:31:48;10.20;99.90
54898;DHT22;40800;52.704;6.398;2022-11-13T09:34:13;10.40;99.90
54898;DHT22;40800;52.704;6.398;2022-11-13T09:36:39;10.40;99.90
54898;DHT22;40800;52.704;6.398;2022-11-13T09:39:05;10.60;99.90
54898;DHT22;40800;52.704;6.398;2022-11-13T09:41:36;10.70;99.90
54898;DHT22;40800;52.704;6.398;2022-11-13T09:44:05;10.70;99.90
54898;DHT22;40800;52.704;6.398;2022-11-13T09:46:52;10.80;99.90
54898;DHT22;40800;52.704;6.398;2022-11-13T09:49:41;10.90;99.90
54898;DHT22;40800;52.704;6.398;2022-11-13T09:52:15;10.90;99.90
54898;DHT22;40800;52.704;6.398;2022-11-13T09:54:42;10.90;99.90
54898;DHT22;40800;52.704;6.398;2022-11-13T09:57:20;11.00;99.90
54898;DHT22;40800;52.704;6.398;2022-11-13T09:59:56;11.00;99.90
54898;DHT22;40800;52.704;6.398;2022-11-13T10:10:49;12.00;99.90
54898;DHT22;40800;52.704;6.398;2022-11-13T10:13:37;12.20;99.90
54898;DHT22;40800;52.704;6.398;2022-11-13T10:16:33;12.30;99.90
54898;DHT22;40800;52.704;6.398;2022-11-13T10:19:25;12.50;99.90
54898;DHT22;40800;52.704;6.398;2022-11-13T10:24:55;12.90;99.90
54898;DHT22;40800;52.704;6.398;2022-11-13T10:27:23;13.10;99.90
54898;DHT22;40800;52.704;6.398;2022-11-13T10:29:48;13.20;99.90
54898;DHT22;40800;52.704;6.398;2022-11-13T10:32:24;13.30;99.90
54898;DHT22;40800;52.704;6.398;2022-11-13T10:35:00;13.50;99.90
54898;DHT22;40800;52.704;6.398;2022-11-13T10:37:47;13.50;99.90
54898;DHT22;40800;52.704;6.398;2022-11-13T10:40:27;13.70;99.90
54898;DHT22;40800;52.704;6.398;2022-11-13T10:42:53;13.60;99.90
54898;DHT22;40800;52.704;6.398;2022-11-13T10:45:20;13.80;99.90
54898;DHT22;40800;52.704;6.398;2022-11-13T10:47:48;13.90;99.90
54898;DHT22;40800;52.704;6.398;2022-11-13T10:52:48;14.00;99.90
54898;DHT22;40800;52.704;6.398;2022-11-13T10:57:55;14.30;99.90
54898;DHT22;40800;52.704;6.398;2022-11-13T11:00:23;14.30;99.90
54898;DHT22;40800;52.704;6.398;2022-11-13T11:02:49;14.30;99.90
54898;DHT22;40800;52.704;6.398;2022-11-13T11:05:20;14.40;99.90
54898;DHT22;40800;52.704;6.398;2022-11-13T11:07:46;14.40;99.90
54898;DHT22;40800;52.704;6.398;2022-11-13T11:10:33;14.60;99.90
54898;DHT22;40800;52.704;6.398;2022-11-13T11:13:20;14.60;99.90
54898;DHT22;40800;52.704;6.398;2022-11-13T11:23:35;15.30;99.90
54898;DHT22;40800;52.704;6.398;2022-11-13T11:28:50;15.30;99.90
54898;DHT22;40800;52.704;6.398;2022-11-13T11:37:11;15.60;99.90
54898;DHT22;40800;52.704;6.398;2022-11-13T11:42:47;15.80;99.90
54898;DHT22;40800;52.704;6.398;2022-11-13T11:45:28;16.00;99.90
54898;DHT22;40800;52.704;6.398;2022-11-13T11:47:57;16.00;99.90
54898;DHT22;40800;52.704;6.398;2022-11-13T11:50:53;16.20;99.90
54898;DHT22;40800;52.704;6.398;2022-11-13T11:56:09;16.80;99.90
54898;DHT22;40800;52.704;6.398;2022-11-13T11:58:49;17.00;99.90
54898;DHT22;40800;52.704;6.398;2022-11-13T12:06:39;17.30;99.90
54898;DHT22;40800;52.704;6.398;2022-11-13T12:09:35;17.30;99.90
54898;DHT22;40800;52.704;6.398;2022-11-13T12:12:13;17.90;99.90
54898;DHT22;40800;52.704;6.398;2022-11-13T12:15:03;18.50;99.90
54898;DHT22;40800;52.704;6.398;2022-11-13T12:25:43;18.60;99.90
54898;DHT22;40800;52.704;6.398;2022-11-13T12:28:19;18.30;99.90
54898;DHT22;40800;52.704;6.398;2022-11-13T12:33:46;17.90;99.90
54898;DHT22;40800;52.704;6.398;2022-11-13T12:36:13;17.70;99.90
54898;DHT22;40800;52.704;6.398;2022-11-13T12:41:48;17.60;99.90
54898;DHT22;40800;52.704;6.398;2022-11-13T12:44:24;17.50;99.90
54898;DHT22;40800;52.704;6.398;2022-11-13T12:46:51;17.30;99.90
54898;DHT22;40800;52.704;6.398;2022-11-13T12:49:32;17.10;99.90
54898;DHT22;40800;52.704;6.398;2022-11-13T12:52:00;17.20;99.90
54898;DHT22;40800;52.704;6.398;2022-11-13T12:54:32;17.10;99.90
54898;DHT22;40800;52.704;6.398;2022-11-13T12:57:18;17.00;99.90
54898;DHT22;40800;52.704;6.398;2022-11-13T12:59:57;17.00;99.90
54898;DHT22;40800;52.704;6.398;2022-11-13T13:06:02;17.00;99.90
54898;DHT22;40800;52.704;6.398;2022-11-13T13:08:59;16.90;99.90
54898;DHT22;40800;52.704;6.398;2022-11-13T13:11:45;16.80;99.90
54898;DHT22;40800;52.704;6.398;2022-11-13T13:14:36;16.80;99.90
54898;DHT22;40800;52.704;6.398;2022-11-13T13:19:38;16.80;99.90
54898;DHT22;40800;52.704;6.398;2022-11-13T13:22:28;16.80;99.90
54898;DHT22;40800;52.704;6.398;2022-11-13T13:25:06;16.70;99.90
54898;DHT22;40800;52.704;6.398;2022-11-13T13:27:59;16.80;99.90
54898;DHT22;40800;52.704;6.398;2022-11-13T13:30:26;16.90;99.90
54898;DHT22;40800;52.704;6.398;2022-11-13T13:35:51;17.10;99.90
54898;DHT22;40800;52.704;6.398;2022-11-13T13:38:43;17.20;99.90
54898;DHT22;40800;52.704;6.398;2022-11-13T13:47:54;17.20;99.90
54898;DHT22;40800;52.704;6.398;2022-11-13T13:50:06;17.30;99.90
54898;DHT22;40800;52.704;6.398;2022-11-13T13:52:34;17.30;99.90
54898;DHT22;40800;52.704;6.398;2022-11-13T13:55:05;17.40;99.90
54898;DHT22;40800;52.704;6.398;2022-11-13T13:57:32;17.40;99.90
54898;DHT22;40800;52.704;6.398;2022-11-13T13:59:59;17.50;99.90
54898;DHT22;40800;52.704;6.398;2022-11-13T14:02:24;17.50;99.90
54898;DHT22;40800;52.704;6.398;2022-11-13T14:04:54;17.60;99.90
54898;DHT22;40800;52.704;6.398;2022-11-13T14:07:24;17.50;99.90
54898;DHT22;40800;52.704;6.398;2022-11-13T14:10:16;17.60;99.90
54898;DHT22;40800;52.704;6.398;2022-11-13T14:12:43;17.50;99.90
54898;DHT22;40800;52.704;6.398;2022-11-13T14:17:48;17.40;99.90
54898;DHT22;40800;52.704;6.398;2022-11-13T14:20:15;17.50;99.90
54898;DHT22;40800;52.704;6.398;2022-11-13T14:22:43;17.50;99.90
54898;DHT22;40800;52.704;6.398;2022-11-13T14:25:19;17.60;99.90
54898;DHT22;40800;52.704;6.398;2022-11-13T14:27:46;17.70;99.90
54898;DHT22;40800;52.704;6.398;2022-11-13T14:30:26;17.70;99.90
54898;DHT22;40800;52.704;6.398;2022-11-13T14:32:52;17.80;99.90
54898;DHT22;40800;52.704;6.398;2022-11-13T14:35:21;17.80;99.90
54898;DHT22;40800;52.704;6.398;2022-11-13T14:37:47;17.80;99.90
54898;DHT22;40800;52.704;6.398;2022-11-13T14:40:29;17.70;99.90
54898;DHT22;40800;52.704;6.398;2022-11-13T14:43:00;17.60;99.90
54898;DHT22;40800;52.704;6.398;2022-11-13T14:45:28;17.60;99.90
54898;DHT22;40800;52.704;6.398;2022-11-13T14:50:29;17.50;99.90
54898;DHT22;40800;52.704;6.398;2022-11-13T14:53:06;17.40;99.90
54898;DHT22;40800;52.704;6.398;2022-11-13T14:55:36;17.40;99.90
54898;DHT22;40800;52.704;6.398;2022-11-13T14:58:02;18.00;99.90
54898;DHT22;40800;52.704;6.398;2022-11-13T15:00:31;18.30;99.90
54898;DHT22;40800;52.704;6.398;2022-11-13T15:02:58;18.80;99.90
54898;DHT22;40800;52.704;6.398;2022-11-13T15:05:24;19.20;99.90
54898;DHT22;40800;52.704;6.398;2022-11-13T15:07:50;19.10;99.90
54898;DHT22;40800;52.704;6.398;2022-11-13T15:10:18;18.70;99.90
54898;DHT22;40800;52.704;6.398;2022-11-13T15:12:44;18.30;99.90
54898;DHT22;40800;52.704;6.398;2022-11-13T15:15:17;17.90;99.90
54898;DHT22;40800;52.704;6.398;2022-11-13T15:17:45;17.50;99.90
54898;DHT22;40800;52.704;6.398;2022-11-13T15:20:23;17.20;99.90
54898;DHT22;40800;52.704;6.398;2022-11-13T15:22:50;17.00;99.90
54898;DHT22;40800;52.704;6.398;2022-11-13T15:25:18;16.80;99.90
54898;DHT22;40800;52.704;6.398;2022-11-13T15:27:43;16.70;99.90
54898;DHT22;40800;52.704;6.398;2022-11-13T15:30:10;16.50;99.90
54898;DHT22;40800;52.704;6.398;2022-11-13T15:32:36;16.30;99.90
54898;DHT22;40800;52.704;6.398;2022-11-13T15:35:02;16.10;99.90
54898;DHT22;40800;52.704;6.398;2022-11-13T15:37:28;16.00;99.90
54898;DHT22;40800;52.704;6.398;2022-11-13T15:39:54;15.70;99.90
54898;DHT22;40800;52.704;6.398;2022-11-13T15:42:26;15.40;99.90
54898;DHT22;40800;52.704;6.398;2022-11-13T15:44:52;15.10;99.90
54898;DHT22;40800;52.704;6.398;2022-11-13T15:49:51;14.90;99.90
54898;DHT22;40800;52.704;6.398;2022-11-13T15:52:17;14.80;99.90
54898;DHT22;40800;52.704;6.398;2022-11-13T15:54:42;14.80;99.90
54898;DHT22;40800;52.704;6.398;2022-11-13T15:57:17;14.70;99.90
54898;DHT22;40800;52.704;6.398;2022-11-13T15:59:44;14.60;99.90
54898;DHT22;40800;52.704;6.398;2022-11-13T16:02:09;14.50;99.90
54898;DHT22;40800;52.704;6.398;2022-11-13T16:04:35;14.40;99.90
54898;DHT22;40800;52.704;6.398;2022-11-13T16:07:03;14.20;99.90
54898;DHT22;40800;52.704;6.398;2022-11-13T16:09:29;14.10;99.90
54898;DHT22;40800;52.704;6.398;2022-11-13T16:11:55;14.00;99.90
54898;DHT22;40800;52.704;6.398;2022-11-13T16:14:20;13.80;99.90
54898;DHT22;40800;52.704;6.398;2022-11-13T16:16:46;13.60;99.90
54898;DHT22;40800;52.704;6.398;2022-11-13T16:19:19;13.50;99.90
54898;DHT22;40800;52.704;6.398;2022-11-13T16:21:46;13.40;99.90
54898;DHT22;40800;52.704;6.398;2022-11-13T16:24:12;13.30;99.90
54898;DHT22;40800;52.704;6.398;2022-11-13T16:26:38;13.20;99.90
54898;DHT22;40800;52.704;6.398;2022-11-13T16:29:11;13.10;99.90
54898;DHT22;40800;52.704;6.398;2022-11-13T16:31:38;13.10;99.90
54898;DHT22;40800;52.704;6.398;2022-11-13T16:34:04;13.00;99.90
54898;DHT22;40800;52.704;6.398;2022-11-13T16:36:30;12.80;99.90
54898;DHT22;40800;52.704;6.398;2022-11-13T16:38:56;12.70;99.90
54898;DHT22;40800;52.704;6.398;2022-11-13T16:41:21;12.50;99.90
54898;DHT22;40800;52.704;6.398;2022-11-13T16:43:48;12.30;99.90
54898;DHT22;40800;52.704;6.398;2022-11-13T16:48:49;12.50;99.90
54898;DHT22;40800;52.704;6.398;2022-11-13T16:51:14;12.00;99.90
54898;DHT22;40800;52.704;6.398;2022-11-13T16:53:41;11.90;99.90
54898;DHT22;40800;52.704;6.398;2022-11-13T16:56:15;11.80;99.90
54898;DHT22;40800;52.704;6.398;2022-11-13T16:58:41;11.70;99.90
54898;DHT22;40800;52.704;6.398;2022-11-13T17:01:14;11.60;99.90
54898;DHT22;40800;52.704;6.398;2022-11-13T17:03:41;11.90;99.90
54898;DHT22;40800;52.704;6.398;2022-11-13T17:06:18;11.40;99.90
54898;DHT22;40800;52.704;6.398;2022-11-13T17:08:44;11.30;99.90
54898;DHT22;40800;52.704;6.398;2022-11-13T17:11:10;11.30;99.90
54898;DHT22;40800;52.704;6.398;2022-11-13T17:13:37;11.20;99.90
54898;DHT22;40800;52.704;6.398;2022-11-13T17:16:02;11.10;99.90
54898;DHT22;40800;52.704;6.398;2022-11-13T17:18:28;11.10;99.90
54898;DHT22;40800;52.704;6.398;2022-11-13T17:20:54;11.00;99.90